Time;durP1;ratioP1;P1;durP2;ratioP2;P2;SDS_P1;SDS_P2;PMS_P1;PMS_P2;Temp;Humidity;BMP_temperature;BMP_pressure;BME280_temperature;BME280_humidity;BME280_pressure;Samples;Min_cycle;Max_cycle;Signal;HPM_P1;HPM_P2
2023/08/09 00:00:05;;;;;;;4.75;1.58;;;15.20;99.90;;;;;;5049634;28;20040;-79
2023/08/09 00:02:32;;;;;;;3.78;1.40;;;15.20;99.90;;;;;;5067821;28;20037;-81
2023/08/09 00:04:58;;;;;;;5.63;1.67;;;15.10;99.90;;;;;;5057537;28;20071;-80
2023/08/09 00:07:25;;;;;;;5.75;1.73;;;15.00;99.90;;;;;;5074028;28;20083;-79
2023/08/09 00:09:52;;;;;;;4.60;1.42;;;15.00;99.90;;;;;;5057289;28;20055;-81
2023/08/09 00:12:18;;;;;;;4.47;1.40;;;15.00;99.90;;;;;;5045786;28;20044;-81
2023/08/09 00:14:45;;;;;;;8.30;1.48;;;14.90;99.90;;;;;;5057344;28;20048;-80
2023/08/09 00:17:12;;;;;;;6.13;1.60;;;14.90;99.90;;;;;;5040291;28;20544;-79
2023/08/09 00:19:39;;;;;;;4.03;1.40;;;14.80;99.90;;;;;;5074046;28;20520;-79
2023/08/09 00:22:05;;;;;;;4.38;1.60;;;14.80;99.90;;;;;;5074817;28;20154;-80
2023/08/09 00:24:32;;;;;;;4.05;1.33;;;14.70;99.90;;;;;;5074808;28;20124;-80
2023/08/09 00:26:59;;;;;;;5.25;1.67;;;14.80;99.90;;;;;;5055791;28;20452;-81
2023/08/09 00:29:26;;;;;;;5.40;1.55;;;14.70;99.90;;;;;;5072831;28;20044;-80
2023/08/09 00:31:55;;;;;;;4.72;1.67;;;14.70;99.90;;;;;;5057214;28;20068;-80
2023/08/09 00:34:22;;;;;;;7.20;1.80;;;14.70;99.90;;;;;;5073746;28;20048;-81
2023/08/09 00:36:51;;;;;;;4.28;1.52;;;14.70;99.90;;;;;;5052652;28;20041;-81
2023/08/09 00:39:18;;;;;;;5.95;1.80;;;14.60;99.90;;;;;;5056408;28;20029;-80
2023/08/09 00:41:44;;;;;;;4.30;1.63;;;14.60;99.90;;;;;;5057157;28;20490;-79
2023/08/09 00:44:11;;;;;;;4.03;1.50;;;14.60;99.90;;;;;;5056672;28;20044;-80
2023/08/09 00:46:38;;;;;;;3.50;1.45;;;14.50;99.90;;;;;;5055928;28;20044;-80
2023/08/09 00:49:05;;;;;;;3.80;1.50;;;14.50;99.90;;;;;;5057379;28;20124;-79
2023/08/09 00:51:32;;;;;;;4.97;1.70;;;14.50;99.90;;;;;;5056728;28;20067;-79
2023/08/09 00:53:59;;;;;;;4.43;1.60;;;14.40;99.90;;;;;;5055900;28;20151;-80
2023/08/09 00:56:26;;;;;;;4.25;1.52;;;14.40;99.90;;;;;;5073979;28;20040;-81
2023/08/09 00:58:53;;;;;;;6.45;1.50;;;14.30;99.90;;;;;;5056741;28;20056;-79
2023/08/09 01:01:19;;;;;;;4.65;1.50;;;14.30;99.90;;;;;;5060579;28;20090;-81
2023/08/09 01:03:47;;;;;;;6.43;1.70;;;14.20;99.90;;;;;;5078145;28;20059;-79
2023/08/09 01:06:13;;;;;;;4.50;1.77;;;14.20;99.90;;;;;;5075737;28;20033;-80
2023/08/09 01:08:40;;;;;;;4.32;1.67;;;14.20;99.90;;;;;;5048691;28;20060;-80
2023/08/09 01:11:08;;;;;;;5.13;1.60;;;14.20;99.90;;;;;;5078117;28;20434;-79
2023/08/09 01:13:37;;;;;;;5.30;1.83;;;14.10;99.90;;;;;;5073539;28;20115;-80
2023/08/09 01:16:06;;;;;;;6.13;2.30;;;14.10;99.90;;;;;;5078240;28;20068;-79
2023/08/09 01:18:32;;;;;;;5.03;1.88;;;14.10;99.90;;;;;;5046493;28;20056;-80
2023/08/09 01:21:00;;;;;;;3.72;1.60;;;14.10;99.90;;;;;;5069932;28;20124;-80
2023/08/09 01:23:28;;;;;;;6.82;2.13;;;14.10;99.90;;;;;;5054191;28;20041;-80
2023/08/09 01:25:54;;;;;;;7.88;2.10;;;14.00;99.90;;;;;;5042420;28;20044;-79
2023/08/09 01:28:21;;;;;;;5.18;1.85;;;14.00;99.90;;;;;;5078030;28;20040;-81
2023/08/09 01:30:48;;;;;;;5.68;2.00;;;14.00;99.90;;;;;;5043578;28;20052;-80
2023/08/09 01:33:15;;;;;;;5.80;2.20;;;14.00;99.90;;;;;;5049322;28;20041;-80
2023/08/09 01:35:41;;;;;;;5.22;1.95;;;13.90;99.90;;;;;;5073530;28;20048;-79
2023/08/09 01:38:09;;;;;;;6.85;2.35;;;13.90;99.90;;;;;;5070674;28;20063;-80
2023/08/09 01:40:36;;;;;;;5.97;2.47;;;13.90;99.90;;;;;;5053464;28;20110;-79
2023/08/09 01:43:03;;;;;;;9.35;2.67;;;13.90;99.90;;;;;;5077503;28;20039;-80
2023/08/09 01:45:30;;;;;;;11.57;2.72;;;13.90;99.90;;;;;;5045824;28;20375;-80
2023/08/09 01:47:57;;;;;;;6.75;2.47;;;13.80;99.90;;;;;;5042300;28;20140;-79
2023/08/09 01:50:23;;;;;;;7.78;3.10;;;13.90;99.90;;;;;;5048890;28;20110;-80
2023/08/09 01:52:55;;;;;;;7.68;2.83;;;13.90;99.90;;;;;;5056119;28;20044;-80
2023/08/09 01:55:22;;;;;;;7.90;3.17;;;13.80;99.90;;;;;;5060119;28;20403;-80
2023/08/09 01:57:50;;;;;;;11.30;3.85;;;13.80;99.90;;;;;;5029240;28;20098;-79
2023/08/09 02:00:19;;;;;;;9.27;3.72;;;13.80;99.90;;;;;;5042175;28;20372;-79
2023/08/09 02:02:45;;;;;;;9.98;3.47;;;13.80;99.90;;;;;;5039692;28;20041;-80
2023/08/09 02:05:12;;;;;;;11.23;3.28;;;13.80;99.90;;;;;;5047215;28;20047;-80
2023/08/09 02:07:40;;;;;;;10.40;3.28;;;13.70;99.90;;;;;;5058581;28;20094;-79
2023/08/09 02:10:09;;;;;;;7.50;2.72;;;13.70;99.90;;;;;;5039579;28;20371;-80
2023/08/09 02:12:35;;;;;;;9.18;3.58;;;13.60;99.90;;;;;;5050622;28;20040;-80
2023/08/09 02:15:02;;;;;;;7.28;2.80;;;13.60;99.90;;;;;;5059750;28;20047;-80
2023/08/09 02:17:29;;;;;;;8.98;3.42;;;13.60;99.90;;;;;;5045267;28;20054;-79
2023/08/09 02:19:56;;;;;;;7.90;3.10;;;13.50;99.90;;;;;;5042038;28;20369;-79
2023/08/09 02:22:23;;;;;;;13.35;3.63;;;13.50;99.90;;;;;;5044946;28;20037;-80
2023/08/09 02:24:50;;;;;;;9.55;3.30;;;13.50;99.90;;;;;;5059360;28;20135;-80
2023/08/09 02:27:17;;;;;;;11.55;3.75;;;13.40;99.90;;;;;;5057830;28;20040;-80
2023/08/09 02:29:44;;;;;;;8.57;3.40;;;13.40;99.90;;;;;;5076648;28;20047;-79
2023/08/09 02:32:11;;;;;;;9.75;3.40;;;13.40;99.90;;;;;;5041545;28;20057;-79
2023/08/09 02:34:37;;;;;;;12.27;3.13;;;13.30;99.90;;;;;;5059048;28;20084;-79
2023/08/09 02:37:04;;;;;;;12.82;3.03;;;13.30;99.90;;;;;;5076331;28;20067;-79
2023/08/09 02:39:32;;;;;;;9.05;2.95;;;13.30;99.90;;;;;;5061396;28;20037;-79
2023/08/09 02:41:59;;;;;;;12.80;3.90;;;13.20;99.90;;;;;;5076720;28;20033;-80
2023/08/09 02:44:25;;;;;;;9.13;3.45;;;13.20;99.90;;;;;;5054728;28;20120;-80
2023/08/09 02:46:52;;;;;;;8.38;3.17;;;13.20;99.90;;;;;;5047647;28;20075;-78
2023/08/09 02:49:19;;;;;;;11.02;3.42;;;13.20;99.90;;;;;;5076776;28;20079;-79
2023/08/09 02:51:46;;;;;;;11.13;3.42;;;13.10;99.90;;;;;;5076451;28;20074;-79
2023/08/09 02:54:13;;;;;;;9.07;3.35;;;13.10;99.90;;;;;;5057938;28;20048;-79
2023/08/09 02:56:39;;;;;;;9.30;3.17;;;13.10;99.90;;;;;;5058333;28;20056;-80
2023/08/09 02:59:06;;;;;;;11.35;3.45;;;13.10;99.90;;;;;;5057704;28;20161;-80
2023/08/09 03:01:33;;;;;;;9.38;3.22;;;13.00;99.90;;;;;;5058456;28;20036;-80
2023/08/09 03:04:00;;;;;;;9.43;3.40;;;13.00;99.90;;;;;;5047591;28;20408;-80
2023/08/09 03:06:27;;;;;;;8.27;2.97;;;13.00;99.90;;;;;;5052685;28;20079;-79
2023/08/09 03:08:54;;;;;;;9.25;3.20;;;13.00;99.90;;;;;;5041736;28;20052;-79
2023/08/09 03:11:21;;;;;;;13.75;3.47;;;13.00;99.90;;;;;;5058183;28;20127;-79
2023/08/09 03:13:48;;;;;;;9.98;3.78;;;13.00;99.90;;;;;;5057248;28;20041;-78
2023/08/09 03:16:16;;;;;;;10.27;3.60;;;13.00;99.90;;;;;;5041518;28;20040;-80
2023/08/09 03:18:43;;;;;;;11.30;3.90;;;13.00;99.90;;;;;;5058372;28;20132;-79
2023/08/09 03:21:10;;;;;;;10.27;3.70;;;13.10;99.90;;;;;;5074118;28;20040;-79
2023/08/09 03:23:36;;;;;;;10.25;3.90;;;13.20;99.90;;;;;;5057727;28;20041;-80
2023/08/09 03:26:04;;;;;;;12.15;4.35;;;13.20;99.90;;;;;;5074474;28;20040;-79
2023/08/09 03:28:32;;;;;;;12.40;4.45;;;13.30;99.90;;;;;;5058128;28;20051;-80
2023/08/09 03:31:01;;;;;;;13.77;4.35;;;13.40;99.90;;;;;;5041522;28;20092;-80
2023/08/09 03:33:32;;;;;;;14.38;4.78;;;13.40;99.90;;;;;;5057456;28;20058;-80
2023/08/09 03:35:59;;;;;;;14.05;4.63;;;13.50;99.90;;;;;;5057635;28;20032;-80
2023/08/09 03:38:26;;;;;;;14.45;4.50;;;13.50;99.90;;;;;;5082945;28;20113;-80
2023/08/09 03:40:52;;;;;;;13.63;5.03;;;13.60;99.90;;;;;;5093670;28;20086;-80
2023/08/09 03:43:19;;;;;;;14.45;4.55;;;13.60;99.90;;;;;;5081615;28;20038;-80
2023/08/09 03:45:46;;;;;;;13.05;4.80;;;13.70;99.90;;;;;;5076637;28;20040;-80
2023/08/09 03:48:13;;;;;;;13.73;5.07;;;13.70;99.90;;;;;;5094350;28;20072;-80
2023/08/09 03:50:40;;;;;;;12.43;4.90;;;13.80;99.90;;;;;;5094783;28;20036;-80
2023/08/09 03:53:07;;;;;;;11.93;5.07;;;13.80;99.90;;;;;;5090764;28;20055;-80
2023/08/09 03:55:37;;;;;;;17.15;5.53;;;13.80;99.90;;;;;;5066982;28;20127;-80
2023/08/09 03:58:03;;;;;;;13.68;4.90;;;13.80;99.90;;;;;;5095188;28;20047;-80
2023/08/09 04:00:32;;;;;;;12.73;4.70;;;13.80;99.90;;;;;;5093587;28;20379;-80
2023/08/09 04:02:59;;;;;;;10.77;4.47;;;13.80;99.90;;;;;;5080096;28;20131;-81
2023/08/09 04:05:26;;;;;;;11.48;4.75;;;13.80;99.90;;;;;;5093954;28;20046;-80
2023/08/09 04:07:54;;;;;;;11.50;4.63;;;13.80;99.90;;;;;;5073710;28;20051;-80
2023/08/09 04:10:23;;;;;;;11.30;4.45;;;13.80;99.90;;;;;;5091359;28;20401;-81
2023/08/09 04:12:50;;;;;;;12.63;4.80;;;13.80;99.90;;;;;;5072941;28;20139;-81
2023/08/09 04:15:17;;;;;;;10.98;5.22;;;13.80;99.90;;;;;;5089922;28;20067;-80
2023/08/09 04:17:48;;;;;;;10.40;4.00;;;13.80;99.90;;;;;;5093939;28;20421;-80
2023/08/09 04:20:16;;;;;;;12.32;4.85;;;13.80;99.90;;;;;;5093077;28;20044;-79
2023/08/09 04:22:42;;;;;;;11.32;4.50;;;13.70;99.90;;;;;;5087331;28;20044;-80
2023/08/09 04:25:10;;;;;;;17.08;5.20;;;13.70;99.90;;;;;;5087216;28;20115;-78
2023/08/09 04:27:38;;;;;;;11.25;4.57;;;13.70;99.90;;;;;;5088085;28;20048;-79
2023/08/09 04:30:05;;;;;;;12.75;5.22;;;13.80;99.90;;;;;;5087324;28;20523;-80
2023/08/09 04:32:32;;;;;;;12.77;5.25;;;13.80;99.90;;;;;;5072870;28;20083;-78
2023/08/09 04:34:58;;;;;;;13.35;4.53;;;13.90;99.90;;;;;;5084022;28;20044;-79
2023/08/09 04:37:27;;;;;;;12.93;5.40;;;13.90;99.90;;;;;;5077604;28;20057;-80
2023/08/09 04:39:53;;;;;;;13.68;5.28;;;13.90;99.90;;;;;;5073682;28;20066;-80
2023/08/09 04:42:20;;;;;;;14.32;5.15;;;14.00;99.90;;;;;;5074863;28;20068;-80
2023/08/09 04:44:47;;;;;;;11.20;4.63;;;14.00;99.90;;;;;;5074737;28;20052;-79
2023/08/09 04:47:13;;;;;;;11.40;4.72;;;14.00;99.90;;;;;;5073328;28;20037;-80
2023/08/09 04:49:41;;;;;;;14.43;4.75;;;14.10;99.90;;;;;;5074210;28;20037;-80
2023/08/09 04:52:07;;;;;;;11.52;4.85;;;14.10;99.90;;;;;;5074400;28;20414;-80
2023/08/09 04:54:34;;;;;;;11.80;4.25;;;14.20;99.90;;;;;;5073910;28;20075;-80
2023/08/09 04:57:02;;;;;;;12.30;4.90;;;14.20;99.90;;;;;;5040185;28;20135;-79
2023/08/09 04:59:29;;;;;;;9.48;3.90;;;14.30;99.90;;;;;;5073407;28;20058;-80
2023/08/09 05:01:56;;;;;;;14.25;4.72;;;14.20;99.90;;;;;;5074647;28;20041;-79
2023/08/09 05:04:23;;;;;;;13.18;4.78;;;14.30;99.90;;;;;;5056444;28;20056;-80
2023/08/09 05:06:49;;;;;;;12.60;4.25;;;14.30;99.90;;;;;;5055793;28;20067;-79
2023/08/09 05:09:16;;;;;;;13.43;4.75;;;14.30;99.90;;;;;;5039998;28;20076;-80
2023/08/09 05:11:43;;;;;;;10.20;4.35;;;14.20;99.90;;;;;;5074191;28;20128;-79
2023/08/09 05:14:09;;;;;;;11.10;4.50;;;14.20;99.90;;;;;;5048856;28;20460;-79
2023/08/09 05:16:36;;;;;;;11.88;4.30;;;14.20;99.90;;;;;;5067212;28;20045;-79
2023/08/09 05:19:03;;;;;;;11.60;4.40;;;14.10;99.90;;;;;;5041688;28;20078;-80
2023/08/09 05:21:30;;;;;;;12.05;4.72;;;14.10;99.90;;;;;;5074001;28;20047;-80
2023/08/09 05:23:56;;;;;;;11.00;4.50;;;14.10;99.90;;;;;;5056626;28;20439;-79
2023/08/09 05:26:23;;;;;;;11.15;4.95;;;14.10;99.90;;;;;;5038935;28;20446;-80
2023/08/09 05:28:51;;;;;;;11.57;4.80;;;14.10;99.90;;;;;;5074115;28;20050;-79
2023/08/09 05:31:18;;;;;;;9.70;4.30;;;14.10;99.90;;;;;;5073031;28;20043;-79
2023/08/09 05:33:45;;;;;;;12.13;4.70;;;14.10;99.90;;;;;;5055656;28;20056;-80
2023/08/09 05:36:12;;;;;;;10.32;4.10;;;14.20;99.90;;;;;;5056334;28;20045;-79
2023/08/09 05:38:39;;;;;;;10.90;4.60;;;14.20;99.90;;;;;;5073839;28;20429;-80
2023/08/09 05:41:06;;;;;;;14.18;4.78;;;14.30;99.90;;;;;;5073044;28;20538;-80
2023/08/09 05:43:32;;;;;;;11.63;4.85;;;14.30;99.90;;;;;;5056490;28;20131;-80
2023/08/09 05:46:00;;;;;;;12.27;5.05;;;14.40;99.90;;;;;;5075271;28;20071;-81
2023/08/09 05:48:26;;;;;;;12.50;5.20;;;14.30;99.90;;;;;;5077466;28;20036;-79
2023/08/09 05:50:53;;;;;;;11.32;4.45;;;14.30;99.90;;;;;;5059607;28;20059;-80
2023/08/09 05:53:20;;;;;;;14.25;5.03;;;14.40;99.90;;;;;;5063098;28;20059;-80
2023/08/09 05:55:47;;;;;;;9.68;3.97;;;14.40;99.90;;;;;;5042944;28;20390;-80
2023/08/09 05:58:15;;;;;;;11.95;4.38;;;14.50;99.90;;;;;;5059844;28;20468;-79
2023/08/09 06:00:42;;;;;;;11.30;4.03;;;14.60;99.90;;;;;;5067676;28;20508;-80
2023/08/09 06:03:08;;;;;;;14.75;4.60;;;14.70;99.90;;;;;;5077390;28;20090;-79
2023/08/09 06:05:35;;;;;;;10.02;3.80;;;14.80;99.90;;;;;;5058384;28;20056;-81
2023/08/09 06:08:02;;;;;;;12.65;4.93;;;14.90;99.90;;;;;;5077575;28;20064;-80
2023/08/09 06:10:29;;;;;;;15.60;4.70;;;15.00;99.90;;;;;;5077693;28;20040;-80
2023/08/09 06:12:55;;;;;;;8.95;3.70;;;15.10;99.90;;;;;;5044540;28;20056;-80
2023/08/09 06:15:25;;;;;;;10.65;4.10;;;15.20;99.90;;;;;;5074195;28;20374;-79
2023/08/09 06:17:52;;;;;;;9.45;4.10;;;15.30;99.90;;;;;;5065626;28;20448;-80
2023/08/09 06:20:21;;;;;;;10.30;4.05;;;15.40;99.90;;;;;;5075975;28;20478;-79
2023/08/09 06:22:48;;;;;;;9.77;3.70;;;15.60;99.90;;;;;;5076955;28;20037;-79
2023/08/09 06:25:16;;;;;;;10.10;4.15;;;15.60;99.90;;;;;;5045104;28;20098;-79
2023/08/09 06:27:43;;;;;;;11.43;3.47;;;15.70;99.90;;;;;;5075891;28;20378;-80
2023/08/09 06:30:09;;;;;;;10.32;3.72;;;15.90;99.90;;;;;;5059271;28;20050;-81
2023/08/09 06:32:36;;;;;;;8.85;3.63;;;16.00;99.90;;;;;;5076151;28;20075;-82
2023/08/09 06:35:04;;;;;;;9.20;3.55;;;16.10;99.90;;;;;;5076352;28;20045;-81
2023/08/09 06:37:31;;;;;;;7.43;3.20;;;16.20;99.90;;;;;;5073394;28;20053;-79
2023/08/09 06:39:57;;;;;;;10.50;3.47;;;16.20;99.90;;;;;;5055768;28;20132;-80
2023/08/09 06:42:24;;;;;;;7.03;3.28;;;16.30;99.90;;;;;;5066341;28;20041;-80
2023/08/09 06:44:55;;;;;;;8.38;3.15;;;16.40;99.90;;;;;;5043061;28;20140;-79
2023/08/09 06:47:22;;;;;;;9.40;3.20;;;16.30;99.90;;;;;;5060881;28;20108;-79
2023/08/09 06:49:49;;;;;;;7.85;3.20;;;16.30;99.90;;;;;;5076268;28;20079;-80
2023/08/09 06:52:16;;;;;;;6.25;2.67;;;16.40;99.90;;;;;;5067945;28;20048;-79
2023/08/09 06:54:43;;;;;;;7.43;3.00;;;16.40;99.90;;;;;;5076723;28;20427;-79
2023/08/09 06:57:12;;;;;;;8.93;3.03;;;16.50;99.90;;;;;;5076062;28;20037;-81
2023/08/09 06:59:38;;;;;;;6.68;2.55;;;16.50;99.90;;;;;;5071819;28;20064;-81
2023/08/09 07:02:05;;;;;;;7.43;2.40;;;16.60;99.90;;;;;;5065745;28;20102;-81
2023/08/09 07:04:32;;;;;;;9.40;2.40;;;16.80;99.90;;;;;;5011848;28;20049;-80
2023/08/09 07:06:59;;;;;;;5.80;2.28;;;17.00;99.90;;;;;;5033193;28;20048;-80
2023/08/09 07:09:25;;;;;;;4.85;2.10;;;17.00;99.90;;;;;;5075559;28;20067;-80
2023/08/09 07:11:52;;;;;;;8.43;2.00;;;17.00;99.90;;;;;;5018206;28;20080;-81
2023/08/09 07:14:19;;;;;;;8.13;2.30;;;17.10;99.90;;;;;;5021870;28;20064;-80
2023/08/09 07:16:45;;;;;;;6.10;2.40;;;17.30;99.90;;;;;;5048221;28;20060;-80
2023/08/09 07:19:12;;;;;;;6.72;2.38;;;17.30;99.90;;;;;;5061906;28;20046;-80
2023/08/09 07:21:39;;;;;;;6.18;2.10;;;17.20;99.90;;;;;;5036272;28;20045;-81
2023/08/09 07:24:06;;;;;;;6.53;2.10;;;17.20;99.90;;;;;;5035993;28;20080;-81
2023/08/09 07:26:32;;;;;;;6.70;2.20;;;17.40;99.90;;;;;;5042063;28;20076;-80
2023/08/09 07:29:00;;;;;;;6.18;1.92;;;17.50;99.90;;;;;;5035434;28;20039;-79
2023/08/09 07:31:27;;;;;;;7.05;2.50;;;17.50;99.90;;;;;;5047307;28;20076;-80
2023/08/09 07:33:54;;;;;;;6.47;2.10;;;17.70;99.90;;;;;;5053828;28;20418;-81
2023/08/09 07:36:20;;;;;;;5.70;2.00;;;17.90;99.90;;;;;;5042655;28;20468;-80
2023/08/09 07:38:47;;;;;;;6.55;2.30;;;18.20;99.90;;;;;;5041106;28;20127;-80
2023/08/09 07:41:14;;;;;;;7.45;2.30;;;18.30;99.90;;;;;;5047335;28;20117;-81
2023/08/09 07:43:41;;;;;;;7.72;2.05;;;18.40;99.90;;;;;;5067520;28;20089;-80
2023/08/09 07:46:08;;;;;;;7.57;2.03;;;18.30;99.90;;;;;;5063570;28;20551;-80
2023/08/09 07:48:35;;;;;;;5.82;2.08;;;18.30;99.90;;;;;;5038764;28;20028;-80
2023/08/09 07:51:02;;;;;;;5.72;2.20;;;18.30;99.90;;;;;;5046952;28;20132;-81
2023/08/09 07:53:28;;;;;;;6.57;2.22;;;18.30;99.90;;;;;;5056921;28;20056;-82
2023/08/09 07:55:55;;;;;;;5.45;1.73;;;18.60;99.90;;;;;;5062510;28;20062;-80
2023/08/09 07:58:22;;;;;;;7.65;2.55;;;18.90;99.90;;;;;;5049032;28;20072;-80
2023/08/09 08:00:49;;;;;;;6.22;2.20;;;19.00;99.90;;;;;;5059190;28;20479;-80
2023/08/09 08:03:16;;;;;;;5.45;1.83;;;19.00;99.90;;;;;;5073551;28;20090;-81
2023/08/09 08:05:43;;;;;;;4.55;1.52;;;18.90;99.90;;;;;;5073422;28;20539;-80
2023/08/09 08:08:23;;;;;;;4.03;1.52;;;19.10;99.90;;;;;;5042247;28;20064;-81
2023/08/09 08:10:50;;;;;;;5.85;2.05;;;19.30;99.90;;;;;;5054997;28;20051;-81
2023/08/09 08:13:16;;;;;;;5.90;1.83;;;19.40;99.90;;;;;;5068032;28;20033;-83
2023/08/09 08:15:43;;;;;;;4.40;1.40;;;19.60;99.90;;;;;;5046383;28;20117;-82
2023/08/09 08:18:11;;;;;;;5.72;1.70;;;19.90;99.90;;;;;;5062837;28;20045;-83
2023/08/09 08:20:37;;;;;;;4.07;1.40;;;19.80;99.90;;;;;;5018971;28;20103;-83
2023/08/09 08:23:06;;;;;;;3.08;1.15;;;19.90;99.90;;;;;;5035901;28;20037;-83
2023/08/09 08:25:32;;;;;;;3.67;1.40;;;20.10;99.90;;;;;;5044878;28;20132;-84
2023/08/09 08:28:02;;;;;;;5.18;1.60;;;20.20;99.90;;;;;;5027557;28;20045;-83
2023/08/09 08:30:28;;;;;;;4.30;1.45;;;20.10;99.90;;;;;;5052405;28;20592;-83
2023/08/09 08:32:55;;;;;;;3.35;1.30;;;20.10;99.90;;;;;;5066206;28;20110;-83
2023/08/09 08:35:24;;;;;;;4.10;1.52;;;20.20;99.90;;;;;;5040889;28;20045;-84
2023/08/09 08:37:53;;;;;;;5.97;1.50;;;20.30;99.90;;;;;;5048303;28;20049;-85
2023/08/09 08:40:21;;;;;;;3.97;1.42;;;20.40;99.90;;;;;;5048315;28;20062;-83
2023/08/09 08:42:48;;;;;;;5.82;1.50;;;20.50;99.90;;;;;;5016954;28;20061;-82
2023/08/09 08:45:15;;;;;;;5.53;1.33;;;20.60;99.90;;;;;;5056403;28;20044;-83
2023/08/09 08:47:43;;;;;;;3.95;1.45;;;20.70;99.90;;;;;;5053448;28;20112;-84
2023/08/09 08:50:10;;;;;;;5.10;1.45;;;20.70;99.90;;;;;;5034630;28;20037;-83
2023/08/09 08:52:37;;;;;;;6.63;1.30;;;20.80;99.90;;;;;;5033285;28;20102;-83
2023/08/09 08:55:03;;;;;;;5.28;1.30;;;20.80;99.90;;;;;;5058680;28;20045;-83
2023/08/09 08:57:30;;;;;;;4.30;1.40;;;20.60;99.90;;;;;;5034428;28;20068;-83
2023/08/09 08:59:57;;;;;;;4.80;1.50;;;20.60;99.90;;;;;;5022651;28;20041;-82
2023/08/09 09:02:24;;;;;;;3.33;1.30;;;20.50;99.90;;;;;;5036553;28;20503;-83
2023/08/09 09:04:52;;;;;;;2.78;1.20;;;20.70;99.90;;;;;;5054045;28;20452;-82
2023/08/09 09:07:19;;;;;;;4.05;1.27;;;20.90;99.90;;;;;;5035872;28;20144;-83
2023/08/09 09:09:46;;;;;;;5.10;1.30;;;21.20;99.90;;;;;;5054231;28;20037;-83
2023/08/09 09:12:12;;;;;;;7.88;1.60;;;21.40;99.90;;;;;;5035765;28;20463;-84
2023/08/09 09:14:39;;;;;;;3.88;1.30;;;21.60;99.90;;;;;;5042845;28;20116;-83
2023/08/09 09:17:06;;;;;;;5.13;1.38;;;21.60;99.90;;;;;;5040545;28;20485;-82
2023/08/09 09:19:33;;;;;;;3.83;1.20;;;21.50;99.90;;;;;;5037442;28;20441;-82
2023/08/09 09:21:59;;;;;;;2.90;1.05;;;21.50;99.90;;;;;;5066022;28;20124;-84
2023/08/09 09:24:26;;;;;;;5.43;1.35;;;21.70;99.90;;;;;;5004716;28;20042;-83
2023/08/09 09:26:53;;;;;;;6.65;1.30;;;21.80;99.90;;;;;;5047156;28;20131;-82
2023/08/09 09:29:20;;;;;;;3.08;1.20;;;22.00;99.90;;;;;;5065898;28;20116;-82
2023/08/09 09:31:48;;;;;;;5.30;1.40;;;22.00;99.90;;;;;;5020936;28;20053;-83
2023/08/09 09:34:14;;;;;;;4.35;1.55;;;22.10;99.90;;;;;;5036959;28;20457;-82
2023/08/09 09:36:42;;;;;;;5.20;1.35;;;21.90;99.90;;;;;;5020100;28;20152;-82
2023/08/09 09:39:12;;;;;;;4.95;1.33;;;21.90;99.90;;;;;;5067441;28;20085;-82
2023/08/09 09:41:39;;;;;;;7.30;1.38;;;21.90;99.90;;;;;;5057568;28;20041;-83
2023/08/09 09:44:05;;;;;;;4.50;1.48;;;21.70;99.90;;;;;;5057531;28;20444;-83
2023/08/09 09:46:32;;;;;;;3.75;1.30;;;21.70;99.90;;;;;;5056537;28;20041;-83
2023/08/09 09:49:03;;;;;;;3.28;1.30;;;21.90;99.90;;;;;;5026575;28;20053;-82
2023/08/09 09:51:30;;;;;;;3.40;1.33;;;21.90;99.90;;;;;;5003928;28;20053;-83
2023/08/09 09:53:56;;;;;;;4.00;1.23;;;22.00;99.90;;;;;;5036637;28;20083;-82
2023/08/09 09:56:23;;;;;;;5.07;1.50;;;22.10;99.90;;;;;;5033888;28;20132;-82
2023/08/09 09:58:50;;;;;;;7.50;1.98;;;22.10;99.90;;;;;;5019686;28;20411;-82
2023/08/09 10:01:18;;;;;;;4.00;1.40;;;21.90;99.90;;;;;;5043519;28;20367;-83
2023/08/09 10:03:45;;;;;;;3.65;1.27;;;22.10;99.90;;;;;;5067896;28;20037;-83
2023/08/09 10:06:19;;;;;;;5.93;1.50;;;22.20;99.90;;;;;;5051591;28;20379;-83
2023/08/09 10:08:45;;;;;;;4.47;1.70;;;22.50;99.90;;;;;;5054610;28;20041;-83
2023/08/09 10:11:12;;;;;;;4.13;1.42;;;22.70;99.90;;;;;;5045564;28;20099;-83
2023/08/09 10:13:39;;;;;;;5.95;1.50;;;23.00;99.90;;;;;;5037535;28;20041;-83
2023/08/09 10:16:07;;;;;;;3.90;1.50;;;23.20;99.90;;;;;;5037415;28;20072;-82
2023/08/09 10:18:34;;;;;;;4.93;1.80;;;23.10;99.90;;;;;;5047500;28;20405;-82
2023/08/09 10:21:00;;;;;;;4.35;1.50;;;22.90;99.90;;;;;;5050984;28;20123;-83
2023/08/09 10:23:28;;;;;;;5.43;1.65;;;23.10;99.90;;;;;;5075806;28;20419;-82
2023/08/09 10:25:55;;;;;;;6.15;1.60;;;23.20;99.90;;;;;;5017875;28;20136;-85
2023/08/09 10:28:22;;;;;;;4.78;1.52;;;23.20;99.90;;;;;;5019367;28;20042;-82
2023/08/09 10:30:49;;;;;;;5.55;1.60;;;23.20;99.90;;;;;;5051148;28;20364;-84
2023/08/09 10:33:18;;;;;;;4.88;1.52;;;23.30;99.90;;;;;;5055327;28;20102;-83
2023/08/09 10:35:46;;;;;;;4.22;1.60;;;23.60;99.90;;;;;;5070368;28;20106;-83
2023/08/09 10:38:13;;;;;;;4.38;1.38;;;23.80;99.90;;;;;;5056415;28;20072;-84
2023/08/09 10:40:40;;;;;;;4.28;1.50;;;24.10;99.90;;;;;;5039201;28;20045;-84
2023/08/09 10:43:07;;;;;;;5.82;1.63;;;24.20;99.90;;;;;;5061472;28;20072;-84
2023/08/09 10:45:33;;;;;;;6.13;1.45;;;24.30;99.90;;;;;;5030589;28;20099;-84
2023/08/09 10:48:01;;;;;;;3.90;1.38;;;24.40;99.90;;;;;;5051681;28;20033;-83
2023/08/09 10:50:28;;;;;;;4.80;1.65;;;24.50;99.90;;;;;;5068294;28;20045;-84
2023/08/09 10:53:10;;;;;;;4.65;1.50;;;24.80;99.90;;;;;;5047853;28;20032;-83
2023/08/09 10:55:37;;;;;;;5.50;1.70;;;25.20;99.90;;;;;;5033735;28;20045;-84
2023/08/09 10:58:05;;;;;;;8.40;1.70;;;25.10;99.90;;;;;;5045157;28;20040;-84
2023/08/09 11:00:32;;;;;;;4.82;1.70;;;25.50;99.90;;;;;;5057715;28;20106;-85
2023/08/09 11:02:59;;;;;;;4.63;1.50;;;26.10;99.90;;;;;;5027286;28;20471;-84
2023/08/09 11:05:29;;;;;;;6.20;1.52;;;26.00;99.90;;;;;;5047547;28;20128;-83
2023/08/09 11:07:58;;;;;;;4.90;1.70;;;25.80;99.90;;;;;;5048011;28;20368;-83
2023/08/09 11:10:25;;;;;;;4.85;1.60;;;26.30;99.90;;;;;;5050359;28;20124;-85
2023/08/09 11:12:51;;;;;;;6.88;1.70;;;26.70;99.90;;;;;;5040654;28;20124;-83
2023/08/09 11:15:18;;;;;;;5.55;1.60;;;27.20;99.90;;;;;;5018261;28;20060;-84
2023/08/09 11:17:46;;;;;;;7.38;1.80;;;27.70;99.90;;;;;;5044808;28;20059;-85
2023/08/09 11:20:15;;;;;;;4.68;1.67;;;27.60;99.90;;;;;;5041733;28;20045;-84
2023/08/09 11:22:42;;;;;;;3.22;1.50;;;27.50;99.90;;;;;;5043286;28;20037;-83
2023/08/09 11:25:09;;;;;;;4.55;1.77;;;27.50;99.90;;;;;;5031715;28;20112;-85
2023/08/09 11:27:37;;;;;;;5.70;1.90;;;27.70;99.90;;;;;;5042969;28;20068;-88
2023/08/09 11:30:04;;;;;;;4.82;1.50;;;28.00;99.90;;;;;;5032707;28;20047;-88
2023/08/09 11:32:31;;;;;;;4.07;1.42;;;27.90;99.90;;;;;;5036100;28;20115;-84
2023/08/09 11:34:58;;;;;;;4.15;1.60;;;27.60;99.90;;;;;;5048664;28;20048;-88
2023/08/09 11:37:27;;;;;;;5.03;1.73;;;27.50;99.90;;;;;;5033038;28;20061;-88
2023/08/09 11:39:54;;;;;;;5.00;1.65;;;27.50;99.90;;;;;;5024869;28;20053;-87
2023/08/09 11:42:23;;;;;;;6.45;1.70;;;27.70;99.90;;;;;;5054294;28;20052;-86
2023/08/09 11:44:50;;;;;;;6.40;1.80;;;27.80;99.90;;;;;;5034992;28;20094;-85
2023/08/09 11:47:19;;;;;;;4.43;1.73;;;27.90;99.90;;;;;;5047548;28;20407;-86
2023/08/09 11:49:46;;;;;;;4.63;1.70;;;28.00;99.90;;;;;;5043521;28;20041;-85
2023/08/09 11:52:13;;;;;;;6.07;1.80;;;27.80;99.90;;;;;;5051446;28;20086;-86
2023/08/09 11:54:40;;;;;;;4.57;1.50;;;27.80;99.90;;;;;;5026751;28;20050;-86
2023/08/09 11:57:09;;;;;;;5.30;1.90;;;28.40;99.90;;;;;;5043618;28;20451;-86
2023/08/09 11:59:35;;;;;;;5.28;1.65;;;28.90;99.90;;;;;;5047834;28;20045;-86
2023/08/09 12:02:02;;;;;;;4.40;1.63;;;29.10;99.90;;;;;;5037167;28;20037;-86
2023/08/09 12:04:30;;;;;;;4.53;1.60;;;29.10;99.90;;;;;;5049776;28;20178;-86
2023/08/09 12:06:59;;;;;;;5.00;1.70;;;29.40;99.90;;;;;;5049502;28;20047;-86
2023/08/09 12:09:30;;;;;;;6.18;2.10;;;29.00;99.90;;;;;;5042884;28;20395;-87
2023/08/09 12:11:56;;;;;;;;;;;29.20;99.90;;;;;;5033246;28;20159;-86
2023/08/09 12:14:23;;;;;;;6.10;1.60;;;29.50;98.80;;;;;;5025408;28;19942;-87
2023/08/09 12:16:52;;;;;;;4.93;2.10;;;29.20;99.90;;;;;;5037445;28;20049;-88
2023/08/09 12:19:18;;;;;;;4.30;1.88;;;28.20;99.90;;;;;;5044798;28;20079;-86
2023/08/09 12:21:45;;;;;;;4.68;1.63;;;28.10;99.90;;;;;;5034084;28;20092;-87
2023/08/09 12:24:12;;;;;;;6.03;1.90;;;28.40;99.90;;;;;;5034255;28;20053;-86
2023/08/09 12:26:39;;;;;;;5.40;2.08;;;28.80;99.90;;;;;;5040337;28;20475;-87
2023/08/09 12:29:06;;;;;;;6.05;2.15;;;28.00;99.90;;;;;;5039452;28;20067;-84
2023/08/09 12:31:33;;;;;;;6.90;2.00;;;28.20;99.90;;;;;;5037668;28;20518;-87
2023/08/09 12:34:00;;;;;;;4.25;1.80;;;28.80;99.90;;;;;;5048342;28;20045;-85
2023/08/09 12:36:26;;;;;;;5.15;1.85;;;29.30;99.90;;;;;;5020313;28;20183;-86
2023/08/09 12:38:53;;;;;;;6.05;1.85;;;29.80;99.20;;;;;;5055147;28;20053;-86
2023/08/09 12:41:20;;;;;;;3.45;1.60;;;30.10;99.80;;;;;;5087025;28;20086;-84